Time;durP1;ratioP1;P1;durP2;ratioP2;P2;SDS_P1;SDS_P2;PMS_P1;PMS_P2;Temp;Humidity;BMP_temperature;BMP_pressure;BME280_temperature;BME280_humidity;BME280_pressure;Samples;Min_cycle;Max_cycle;Signal;HPM_P1;HPM_P2
2022/08/27 00:00:58;;;;;;;4.27;3.97;;;18.80;99.90;;;;;;5072643;28;20201;-52
2022/08/27 00:03:27;;;;;;;4.33;4.13;;;18.80;99.90;;;;;;5072404;28;20224;-52
2022/08/27 00:05:54;;;;;;;4.60;4.40;;;18.80;99.90;;;;;;5073299;28;20225;-53
2022/08/27 00:08:20;;;;;;;4.33;4.13;;;18.80;99.90;;;;;;5073814;28;20616;-53
2022/08/27 00:10:47;;;;;;;4.13;3.90;;;18.80;99.90;;;;;;5072788;28;20228;-52
2022/08/27 00:13:15;;;;;;;4.27;4.13;;;18.80;99.90;;;;;;5072331;28;20271;-53
2022/08/27 00:15:42;;;;;;;4.77;4.53;;;18.80;99.90;;;;;;5073086;28;20300;-52
2022/08/27 00:18:12;;;;;;;5.80;5.47;;;18.70;99.90;;;;;;5073380;28;20237;-53
2022/08/27 00:20:40;;;;;;;5.33;5.03;;;18.70;99.90;;;;;;5073196;28;20290;-53
2022/08/27 00:23:07;;;;;;;4.67;4.47;;;18.80;99.90;;;;;;5070850;28;20305;-52
2022/08/27 00:25:34;;;;;;;4.73;4.47;;;18.70;99.90;;;;;;5071261;28;20244;-53
2022/08/27 00:28:01;;;;;;;5.03;4.77;;;18.60;99.90;;;;;;5064729;28;20235;-53
2022/08/27 00:30:28;;;;;;;4.93;4.73;;;18.60;99.90;;;;;;5073314;28;20258;-53
2022/08/27 00:32:56;;;;;;;5.23;5.03;;;18.60;99.90;;;;;;5072885;28;20800;-52
2022/08/27 00:35:23;;;;;;;5.70;5.40;;;18.60;99.90;;;;;;5064764;28;20276;-52
2022/08/27 00:37:52;;;;;;;5.70;5.30;;;18.50;99.90;;;;;;5071558;28;20250;-53
2022/08/27 00:40:21;;;;;;;6.47;6.07;;;18.50;99.90;;;;;;5073091;28;20904;-53
2022/08/27 00:42:49;;;;;;;7.37;6.77;;;18.50;99.90;;;;;;5072129;28;20512;-53
2022/08/27 00:45:18;;;;;;;6.57;6.27;;;18.40;99.90;;;;;;5071323;28;20221;-52
2022/08/27 00:47:49;;;;;;;6.33;5.93;;;18.40;99.90;;;;;;5071773;28;20242;-53
2022/08/27 00:50:19;;;;;;;6.33;6.00;;;18.30;99.90;;;;;;5072646;28;20198;-53
2022/08/27 00:52:49;;;;;;;6.90;6.40;;;18.30;99.90;;;;;;5072828;28;20197;-53
2022/08/27 00:55:21;;;;;;;8.07;7.47;;;18.40;99.90;;;;;;5071370;28;20640;-53
2022/08/27 00:57:56;;;;;;;7.57;6.97;;;18.40;99.90;;;;;;5072413;28;20545;-53
2022/08/27 01:00:23;;;;;;;7.30;6.63;;;18.40;99.90;;;;;;5072309;28;20261;-53
2022/08/27 01:02:50;;;;;;;6.50;6.10;;;18.40;99.90;;;;;;5063849;28;20213;-53
2022/08/27 01:05:20;;;;;;;7.00;6.60;;;18.40;99.90;;;;;;5071305;28;20271;-53
2022/08/27 01:07:51;;;;;;;9.00;8.30;;;18.40;99.90;;;;;;5072474;28;20205;-53
2022/08/27 01:10:22;;;;;;;7.47;6.97;;;18.40;99.90;;;;;;5066308;28;20260;-53
2022/08/27 01:12:51;;;;;;;7.40;6.93;;;18.40;99.90;;;;;;5070688;28;20224;-52
2022/08/27 01:15:18;;;;;;;8.37;7.70;;;18.40;99.90;;;;;;5070900;28;20300;-53
2022/08/27 01:17:46;;;;;;;8.27;7.67;;;18.40;99.90;;;;;;5069290;28;20210;-53
2022/08/27 01:20:20;;;;;;;8.07;7.50;;;18.40;99.90;;;;;;5072173;28;20299;-53
2022/08/27 01:22:55;;;;;;;7.97;7.37;;;18.40;99.90;;;;;;5072089;28;20282;-53
2022/08/27 01:25:25;;;;;;;8.00;7.50;;;18.40;99.90;;;;;;5070766;28;20220;-52
2022/08/27 01:27:57;;;;;;;7.33;6.83;;;18.40;99.90;;;;;;5071780;28;20201;-53
2022/08/27 01:30:24;;;;;;;7.00;6.60;;;18.30;99.90;;;;;;5071933;28;20216;-53
2022/08/27 01:32:51;;;;;;;8.60;7.90;;;18.30;99.90;;;;;;5070770;28;20635;-52
2022/08/27 01:35:19;;;;;;;7.50;7.10;;;18.30;99.90;;;;;;5067590;28;20225;-53
2022/08/27 01:37:49;;;;;;;7.80;7.30;;;18.30;99.90;;;;;;5071635;28;20559;-53
2022/08/27 01:40:18;;;;;;;7.70;7.17;;;18.30;99.90;;;;;;5071827;28;20299;-53
2022/08/27 01:42:49;;;;;;;7.37;6.80;;;18.40;99.90;;;;;;5067944;28;20576;-53
2022/08/27 01:45:17;;;;;;;7.23;6.53;;;18.30;99.90;;;;;;5070642;28;20240;-53
2022/08/27 01:47:45;;;;;;;6.83;6.30;;;18.30;99.90;;;;;;5070766;28;20801;-53
2022/08/27 01:50:16;;;;;;;7.90;7.40;;;18.30;99.90;;;;;;5071620;28;20690;-53
2022/08/27 01:52:43;;;;;;;8.00;7.50;;;18.30;99.90;;;;;;5067249;28;20258;-53
2022/08/27 01:55:14;;;;;;;7.87;7.37;;;18.40;99.90;;;;;;5070151;28;20661;-53
2022/08/27 01:57:41;;;;;;;7.37;6.87;;;18.40;99.90;;;;;;5071622;28;20232;-52
2022/08/27 02:00:14;;;;;;;8.43;7.83;;;18.50;99.90;;;;;;5071369;28;20770;-53
2022/08/27 02:02:41;;;;;;;8.63;8.10;;;18.40;99.90;;;;;;5070451;28;20221;-52
2022/08/27 02:05:09;;;;;;;7.73;7.07;;;18.50;99.90;;;;;;5071180;28;20196;-52
2022/08/27 02:07:36;;;;;;;7.00;6.50;;;18.50;99.90;;;;;;5068822;28;20236;-53
2022/08/27 02:10:05;;;;;;;6.73;6.43;;;18.40;99.90;;;;;;5071261;28;20243;-53
2022/08/27 02:12:32;;;;;;;8.03;7.53;;;18.40;99.90;;;;;;5070424;28;20209;-52
2022/08/27 02:14:59;;;;;;;7.30;6.70;;;18.40;99.90;;;;;;5070054;28;20251;-53
2022/08/27 02:17:27;;;;;;;7.73;7.10;;;18.40;99.90;;;;;;5071183;28;20670;-52
2022/08/27 02:19:54;;;;;;;8.00;7.47;;;18.40;99.90;;;;;;5071320;28;20204;-52
2022/08/27 02:22:21;;;;;;;7.20;6.80;;;18.40;99.90;;;;;;5069454;28;20205;-52
2022/08/27 02:24:48;;;;;;;7.33;6.70;;;18.40;99.90;;;;;;5055025;28;20217;-52
2022/08/27 02:27:15;;;;;;;7.63;7.17;;;18.40;99.90;;;;;;5052984;28;20209;-53
2022/08/27 02:29:42;;;;;;;8.03;7.50;;;18.40;99.90;;;;;;5055635;28;20259;-53
2022/08/27 02:32:09;;;;;;;7.60;7.10;;;18.40;99.90;;;;;;5063584;28;20709;-53
2022/08/27 02:34:38;;;;;;;6.97;6.47;;;18.40;99.90;;;;;;5058094;28;20271;-53
2022/08/27 02:37:06;;;;;;;6.50;6.10;;;18.40;99.90;;;;;;5051694;28;20249;-53
2022/08/27 02:39:33;;;;;;;6.93;6.47;;;18.40;99.90;;;;;;5065298;28;20280;-53
2022/08/27 02:42:00;;;;;;;7.70;7.13;;;18.50;99.90;;;;;;5069749;28;20208;-53
2022/08/27 02:44:27;;;;;;;8.43;7.67;;;18.50;99.90;;;;;;5067774;28;20690;-53
2022/08/27 02:46:54;;;;;;;8.63;8.13;;;18.50;99.90;;;;;;5059673;28;20699;-52
2022/08/27 02:49:21;;;;;;;7.67;7.07;;;18.50;99.90;;;;;;5051772;28;20202;-53
2022/08/27 02:51:53;;;;;;;10.47;9.77;;;18.50;99.90;;;;;;5057248;28;20724;-52
2022/08/27 02:54:20;;;;;;;9.60;9.00;;;18.50;99.90;;;;;;5064391;28;20197;-52
2022/08/27 02:56:47;;;;;;;9.87;9.17;;;18.50;99.90;;;;;;5054185;28;20221;-53
2022/08/27 02:59:14;;;;;;;7.33;6.93;;;18.50;99.90;;;;;;5050799;28;20691;-53
2022/08/27 03:01:41;;;;;;;8.70;8.10;;;18.50;99.90;;;;;;5050874;28;20285;-53
2022/08/27 03:04:08;;;;;;;9.30;8.57;;;18.50;99.90;;;;;;5055983;28;20232;-53
2022/08/27 03:06:36;;;;;;;8.67;8.03;;;18.50;99.90;;;;;;5062640;28;20218;-53
2022/08/27 03:09:04;;;;;;;8.47;7.90;;;18.50;99.90;;;;;;5067721;28;20202;-52
2022/08/27 03:11:32;;;;;;;7.97;7.50;;;18.50;99.90;;;;;;5056522;28;20243;-52
2022/08/27 03:13:59;;;;;;;8.17;7.53;;;18.50;99.90;;;;;;5057037;28;20201;-53
2022/08/27 03:16:26;;;;;;;9.03;8.23;;;18.50;99.90;;;;;;5061104;28;20241;-53
2022/08/27 03:18:52;;;;;;;8.20;7.70;;;18.50;99.90;;;;;;5054780;28;20276;-52
2022/08/27 03:21:21;;;;;;;7.20;6.70;;;18.40;99.90;;;;;;5054633;28;20607;-53
2022/08/27 03:23:48;;;;;;;7.97;7.47;;;18.50;99.90;;;;;;5056194;28;20218;-53
2022/08/27 03:26:17;;;;;;;7.40;6.90;;;18.40;99.90;;;;;;5061249;28;20245;-52
2022/08/27 03:28:45;;;;;;;7.93;7.43;;;18.40;99.90;;;;;;5072644;28;20243;-53
2022/08/27 03:31:19;;;;;;;7.00;6.60;;;18.40;99.90;;;;;;5073119;28;20193;-52
2022/08/27 03:33:46;;;;;;;8.03;7.43;;;18.30;99.90;;;;;;5072066;28;20197;-53
2022/08/27 03:36:14;;;;;;;9.00;8.30;;;18.40;99.90;;;;;;5064556;28;20214;-52
2022/08/27 03:38:41;;;;;;;10.80;10.00;;;18.40;99.90;;;;;;5070385;28;20744;-52
2022/08/27 03:41:08;;;;;;;9.80;9.00;;;18.40;99.90;;;;;;5073932;28;20727;-53
2022/08/27 03:43:37;;;;;;;9.20;8.40;;;18.40;99.90;;;;;;5066432;28;20217;-53
2022/08/27 03:46:04;;;;;;;9.27;8.57;;;18.40;99.90;;;;;;5065323;28;20278;-52
2022/08/27 03:48:32;;;;;;;10.60;9.80;;;18.40;99.90;;;;;;5069467;28;22041;-53
2022/08/27 03:51:04;;;;;;;9.13;8.33;;;18.40;99.90;;;;;;5073524;28;20243;-52
2022/08/27 03:53:31;;;;;;;8.70;8.10;;;18.40;99.90;;;;;;5070129;28;20204;-53
2022/08/27 03:55:58;;;;;;;10.63;9.90;;;18.40;99.90;;;;;;5066671;28;20221;-53
2022/08/27 03:58:25;;;;;;;11.60;10.40;;;18.40;99.90;;;;;;5071104;28;20259;-53
2022/08/27 04:00:54;;;;;;;10.00;9.27;;;18.40;99.90;;;;;;5072443;28;20631;-53
2022/08/27 04:03:21;;;;;;;10.23;9.53;;;18.40;99.90;;;;;;5071471;28;20307;-52
2022/08/27 04:05:53;;;;;;;11.83;10.93;;;18.40;99.90;;;;;;5066520;28;20257;-52
2022/08/27 04:08:20;;;;;;;11.33;10.43;;;18.40;99.90;;;;;;5066908;28;20895;-53
2022/08/27 04:10:47;;;;;;;12.17;11.30;;;18.40;99.90;;;;;;5073123;28;20667;-52
2022/08/27 04:13:14;;;;;;;12.40;11.27;;;18.40;99.90;;;;;;5073216;28;20620;-52
2022/08/27 04:15:44;;;;;;;12.00;10.90;;;18.40;99.90;;;;;;5070172;28;20223;-52
2022/08/27 04:18:15;;;;;;;11.77;10.80;;;18.40;99.90;;;;;;5067239;28;20230;-52
2022/08/27 04:20:42;;;;;;;12.37;11.23;;;18.40;99.90;;;;;;5072697;28;20259;-53
2022/08/27 04:23:12;;;;;;;11.87;11.07;;;18.40;99.90;;;;;;5071116;28;20731;-53
2022/08/27 04:25:40;;;;;;;12.50;11.47;;;18.40;99.90;;;;;;5068291;28;20217;-52
2022/08/27 04:28:08;;;;;;;13.83;12.60;;;18.30;99.90;;;;;;5072206;28;20217;-52
2022/08/27 04:30:39;;;;;;;12.83;11.90;;;18.30;99.90;;;;;;5059553;28;20233;-52
2022/08/27 04:33:08;;;;;;;13.13;12.13;;;18.30;99.90;;;;;;5065307;28;20250;-53
2022/08/27 04:35:37;;;;;;;12.73;11.60;;;18.30;99.90;;;;;;5060955;28;20301;-53
2022/08/27 04:38:04;;;;;;;12.80;11.60;;;18.40;99.90;;;;;;5064304;28;20280;-52
2022/08/27 04:43:15;;;;;;;12.50;11.43;;;18.30;99.90;;;;;;5068605;28;20598;-52
2022/08/27 04:45:44;;;;;;;11.27;10.37;;;18.30;99.90;;;;;;5066551;28;20257;-53
2022/08/27 04:48:12;;;;;;;11.43;10.63;;;18.30;99.90;;;;;;5072091;28;20658;-52
2022/08/27 04:50:42;;;;;;;12.43;11.43;;;18.30;99.90;;;;;;5071914;28;20274;-53
2022/08/27 04:53:11;;;;;;;10.67;9.87;;;18.30;99.90;;;;;;5072888;28;20197;-53
2022/08/27 04:55:41;;;;;;;12.00;11.10;;;18.30;99.90;;;;;;5069570;28;20212;-52
2022/08/27 04:58:11;;;;;;;11.80;10.70;;;18.40;99.90;;;;;;5064180;28;20216;-53
2022/08/27 05:00:42;;;;;;;10.87;9.97;;;18.40;99.90;;;;;;5068660;28;20683;-53
2022/08/27 05:03:09;;;;;;;13.20;12.10;;;18.40;99.90;;;;;;5065215;28;20193;-52
2022/08/27 05:05:36;;;;;;;13.33;12.23;;;18.40;99.90;;;;;;5070672;28;20221;-52
2022/08/27 05:08:09;;;;;;;11.90;11.00;;;18.40;99.90;;;;;;5072106;28;20213;-52
2022/08/27 05:10:41;;;;;;;15.23;14.03;;;18.40;99.90;;;;;;5071903;28;20274;-53
2022/08/27 05:13:11;;;;;;;13.70;12.60;;;18.40;99.90;;;;;;5063899;28;20293;-52
2022/08/27 05:15:39;;;;;;;13.77;12.63;;;18.40;99.90;;;;;;5070185;28;20295;-52
2022/08/27 05:18:08;;;;;;;15.17;13.87;;;18.50;99.90;;;;;;5063625;28;20651;-52
2022/08/27 05:20:42;;;;;;;14.80;13.37;;;18.50;99.90;;;;;;5057205;28;20197;-52
2022/08/27 05:23:13;;;;;;;15.37;14.17;;;18.50;99.90;;;;;;5060451;28;20200;-53
2022/08/27 05:25:42;;;;;;;13.83;12.73;;;18.50;99.90;;;;;;5062173;28;20225;-52
2022/08/27 05:28:12;;;;;;;14.17;13.07;;;18.50;99.90;;;;;;5059815;28;20320;-52
2022/08/27 05:30:40;;;;;;;15.53;14.33;;;18.50;99.90;;;;;;5068201;28;20224;-52
2022/08/27 05:33:07;;;;;;;16.47;15.17;;;18.50;99.90;;;;;;5052406;28;20241;-52
2022/08/27 05:35:40;;;;;;;15.33;14.13;;;18.60;99.90;;;;;;5066837;28;20256;-53
2022/08/27 05:38:13;;;;;;;13.97;12.90;;;18.50;99.90;;;;;;5056576;28;20260;-52
2022/08/27 05:40:40;;;;;;;15.93;14.53;;;18.50;99.90;;;;;;5058348;28;20242;-52
2022/08/27 05:43:13;;;;;;;15.77;14.37;;;18.60;99.90;;;;;;5069352;28;20663;-52
2022/08/27 05:45:41;;;;;;;15.23;14.03;;;18.60;99.90;;;;;;5059127;28;20699;-52
2022/08/27 05:48:14;;;;;;;14.30;13.17;;;18.50;99.90;;;;;;5067544;28;20200;-52
2022/08/27 05:50:43;;;;;;;15.20;14.00;;;18.60;99.90;;;;;;5053518;28;20271;-52
2022/08/27 05:53:13;;;;;;;15.87;14.57;;;18.60;99.90;;;;;;5052132;28;20197;-52
2022/08/27 05:55:43;;;;;;;14.43;13.33;;;18.60;99.90;;;;;;5056764;28;20209;-52
2022/08/27 06:01:03;;;;;;;16.03;14.70;;;18.50;99.90;;;;;;5059743;28;20236;-52
2022/08/27 06:01:03;;;;;;;12.93;11.83;;;18.50;99.90;;;;;;5057377;28;20198;-52
2022/08/27 06:03:31;;;;;;;14.07;12.87;;;18.60;99.90;;;;;;5055781;28;20192;-52
2022/08/27 06:06:01;;;;;;;15.93;14.63;;;18.60;99.90;;;;;;5056500;28;20311;-52
2022/08/27 06:08:29;;;;;;;15.03;13.83;;;18.60;99.90;;;;;;5070593;28;20264;-53
2022/08/27 06:10:57;;;;;;;14.40;13.30;;;18.50;99.90;;;;;;5070349;28;20243;-52
2022/08/27 06:13:24;;;;;;;13.87;12.50;;;18.50;99.90;;;;;;5055565;28;20658;-52
2022/08/27 06:16:00;;;;;;;13.77;12.57;;;18.50;99.90;;;;;;5063122;28;20214;-52
2022/08/27 06:18:27;;;;;;;13.17;12.07;;;18.60;99.90;;;;;;5052627;28;20273;-53
2022/08/27 06:20:54;;;;;;;15.07;13.67;;;18.60;99.90;;;;;;5051681;28;20232;-52
2022/08/27 06:23:21;;;;;;;17.33;13.73;;;18.60;99.90;;;;;;5051372;28;20285;-53
2022/08/27 06:25:50;;;;;;;14.07;12.97;;;18.70;99.90;;;;;;5051207;28;20304;-52
2022/08/27 06:28:20;;;;;;;13.77;12.67;;;18.70;99.90;;;;;;5055385;28;20197;-52
2022/08/27 06:30:47;;;;;;;14.60;13.40;;;18.80;99.90;;;;;;5051213;28;20206;-52
2022/08/27 06:33:14;;;;;;;14.57;13.37;;;18.80;99.90;;;;;;5056718;28;20287;-52
2022/08/27 06:35:41;;;;;;;13.80;12.67;;;18.90;99.90;;;;;;5060672;28;20213;-52
2022/08/27 06:38:11;;;;;;;13.33;12.13;;;18.90;99.90;;;;;;5054338;28;20232;-52
2022/08/27 06:40:41;;;;;;;14.20;12.87;;;18.90;99.90;;;;;;5051534;28;20733;-52
2022/08/27 06:43:09;;;;;;;13.27;12.10;;;18.90;99.90;;;;;;5072272;28;20189;-52
2022/08/27 06:45:38;;;;;;;12.73;11.63;;;18.90;99.90;;;;;;5057087;28;20756;-52
2022/08/27 06:48:05;;;;;;;13.60;12.60;;;18.90;99.90;;;;;;5055099;28;20220;-52
2022/08/27 06:50:43;;;;;;;13.30;12.03;;;19.00;99.90;;;;;;5058954;28;20205;-52
2022/08/27 06:53:28;;;;;;;11.13;10.33;;;19.00;99.90;;;;;;5063429;28;20284;-52
2022/08/27 06:55:55;;;;;;;15.07;13.60;;;19.00;99.90;;;;;;5066203;28;20767;-52
2022/08/27 06:58:23;;;;;;;15.00;13.70;;;19.10;99.90;;;;;;5060772;28;20232;-52
2022/08/27 07:00:50;;;;;;;14.87;13.67;;;19.10;99.90;;;;;;5072140;28;20204;-52
2022/08/27 07:03:17;;;;;;;13.03;11.97;;;19.10;99.90;;;;;;5074378;28;20300;-52
2022/08/27 07:05:46;;;;;;;13.07;11.87;;;19.30;99.90;;;;;;5064133;28;20767;-53
2022/08/27 07:08:13;;;;;;;12.33;11.33;;;19.30;99.90;;;;;;5069935;28;20202;-52
2022/08/27 07:10:40;;;;;;;14.60;13.57;;;19.40;99.90;;;;;;5074907;28;20210;-52
2022/08/27 07:13:10;;;;;;;15.10;13.90;;;19.40;99.90;;;;;;5074207;28;20205;-52
2022/08/27 07:15:40;;;;;;;13.60;12.50;;;19.50;99.90;;;;;;5074538;28;20213;-52
2022/08/27 07:18:10;;;;;;;15.10;13.70;;;19.60;99.90;;;;;;5070289;28;20292;-53
2022/08/27 07:20:41;;;;;;;13.00;11.83;;;19.70;99.90;;;;;;5063586;28;20205;-52
2022/08/27 07:23:12;;;;;;;11.53;10.57;;;19.80;99.90;;;;;;5060729;28;20696;-52
2022/08/27 07:25:42;;;;;;;14.57;13.07;;;19.90;99.90;;;;;;5068366;28;20601;-53
2022/08/27 07:28:12;;;;;;;15.13;13.73;;;20.00;99.90;;;;;;5066057;28;20201;-52
2022/08/27 07:30:41;;;;;;;13.70;12.50;;;20.00;99.90;;;;;;5066772;28;20663;-52
2022/08/27 07:33:09;;;;;;;14.20;13.10;;;19.90;99.90;;;;;;5056375;28;20201;-53
2022/08/27 07:35:36;;;;;;;13.20;12.00;;;20.00;99.90;;;;;;5067673;28;20316;-53
2022/08/27 07:38:03;;;;;;;12.57;11.75;;;20.00;99.90;;;;;;5068101;28;20527;-53
2022/08/27 07:40:30;;;;;;;12.00;11.10;;;20.10;99.90;;;;;;5072302;28;20247;-52
2022/08/27 07:45:49;;;;;;;13.03;11.80;;;20.40;99.90;;;;;;5072161;28;20231;-52
2022/08/27 07:48:16;;;;;;;11.87;10.87;;;20.60;99.90;;;;;;5072882;28;20563;-52
2022/08/27 07:50:43;;;;;;;11.40;10.53;;;20.90;99.90;;;;;;5068659;28;20204;-52
2022/08/27 07:53:13;;;;;;;11.43;10.37;;;20.80;99.90;;;;;;5067498;28;20215;-52
2022/08/27 07:55:40;;;;;;;8.50;8.00;;;20.80;99.90;;;;;;5070616;28;20213;-52
2022/08/27 07:58:10;;;;;;;7.77;7.17;;;21.00;99.90;;;;;;5071066;28;20258;-52
2022/08/27 08:00:37;;;;;;;7.30;6.73;;;21.20;99.90;;;;;;5059274;28;20201;-52
2022/08/27 08:03:05;;;;;;;7.43;6.97;;;21.40;99.90;;;;;;5052746;28;20295;-52
2022/08/27 08:05:32;;;;;;;8.83;8.23;;;21.70;99.90;;;;;;5062774;28;20220;-52
2022/08/27 08:07:59;;;;;;;7.47;6.97;;;21.90;99.90;;;;;;5071872;28;20197;-52
2022/08/27 08:10:27;;;;;;;6.50;6.10;;;22.00;99.90;;;;;;5058466;28;20221;-52
2022/08/27 08:12:54;;;;;;;7.03;6.70;;;22.00;99.90;;;;;;5063329;28;20209;-52
2022/08/27 08:15:21;;;;;;;7.03;6.53;;;21.80;99.90;;;;;;5068043;28;20645;-52
2022/08/27 08:17:48;;;;;;;7.93;7.43;;;21.70;99.90;;;;;;5057126;28;20201;-52
2022/08/27 08:20:17;;;;;;;8.60;8.10;;;21.60;99.90;;;;;;5052982;28;20204;-52
2022/08/27 08:22:44;;;;;;;9.47;8.87;;;21.70;99.90;;;;;;5052887;28;20210;-52
2022/08/27 08:25:12;;;;;;;8.57;8.03;;;21.60;99.90;;;;;;5052509;28;20213;-53
2022/08/27 08:27:41;;;;;;;8.30;7.70;;;21.70;99.90;;;;;;5052551;28;20218;-52
2022/08/27 08:30:09;;;;;;;8.63;8.00;;;21.70;99.90;;;;;;5055294;28;20204;-52
2022/08/27 08:32:36;;;;;;;9.53;8.93;;;21.90;99.90;;;;;;5061463;28;20383;-52
2022/08/27 08:35:05;;;;;;;8.07;7.47;;;22.00;99.90;;;;;;5053183;28;20243;-53
2022/08/27 08:37:33;;;;;;;5.10;4.90;;;22.30;99.90;;;;;;5065112;28;20197;-53
2022/08/27 08:40:00;;;;;;;5.33;4.93;;;22.40;99.90;;;;;;5071480;28;20201;-53
2022/08/27 08:42:34;;;;;;;5.47;5.27;;;23.00;99.90;;;;;;5063236;28;20307;-52
2022/08/27 08:45:04;;;;;;;5.33;5.03;;;23.10;99.90;;;;;;5056008;28;20217;-52
2022/08/27 08:47:43;;;;;;;5.27;4.97;;;23.10;99.90;;;;;;5057014;28;20725;-52
2022/08/27 08:50:14;;;;;;;6.23;5.83;;;22.90;99.90;;;;;;5054108;28;20291;-52
2022/08/27 08:52:48;;;;;;;5.33;4.87;;;22.80;99.90;;;;;;5051976;28;20194;-52
2022/08/27 08:55:32;;;;;;;5.00;4.80;;;22.80;99.90;;;;;;5059921;28;20221;-52
2022/08/27 08:58:16;;;;;;;6.00;5.70;;;22.90;99.90;;;;;;5054209;28;20201;-52
2022/08/27 09:00:45;;;;;;;7.33;6.93;;;22.80;99.90;;;;;;5069225;28;20571;-52
2022/08/27 09:03:15;;;;;;;7.17;6.67;;;22.60;99.90;;;;;;5071013;28;20282;-52
2022/08/27 09:05:47;;;;;;;8.50;7.87;;;22.70;99.90;;;;;;5066434;28;20221;-52
2022/08/27 09:08:20;;;;;;;7.50;7.10;;;22.80;99.90;;;;;;5056881;28;20694;-52
2022/08/27 09:10:55;;;;;;;6.60;6.20;;;22.70;99.90;;;;;;5062033;28;20255;-52
2022/08/27 09:13:26;;;;;;;7.63;7.13;;;22.60;99.90;;;;;;5057609;28;20197;-52
2022/08/27 09:15:57;;;;;;;5.63;5.33;;;22.60;99.90;;;;;;5070990;28;20263;-53
2022/08/27 09:18:25;;;;;;;6.13;5.83;;;22.60;99.90;;;;;;5072014;28;20609;-52
2022/08/27 09:20:59;;;;;;;6.50;6.10;;;22.40;99.90;;;;;;5071152;28;20201;-52
2022/08/27 09:23:37;;;;;;;6.53;6.20;;;22.30;99.90;;;;;;5071710;28;20669;-52
2022/08/27 09:26:04;;;;;;;5.30;5.00;;;22.30;99.90;;;;;;5068746;28;20229;-53
2022/08/27 09:31:17;;;;;;;5.17;4.80;;;22.40;99.90;;;;;;5065867;28;20326;-53
2022/08/27 09:33:44;;;;;;;5.50;5.20;;;22.40;99.90;;;;;;5071638;28;20208;-52
2022/08/27 09:36:13;;;;;;;5.27;5.03;;;22.40;99.90;;;;;;5071285;28;20209;-52
2022/08/27 09:38:52;;;;;;;5.57;5.17;;;22.40;99.90;;;;;;5071598;28;20224;-52
2022/08/27 09:41:24;;;;;;;5.37;5.07;;;22.40;99.90;;;;;;5065469;28;20205;-52
2022/08/27 09:43:58;;;;;;;5.10;4.80;;;22.60;99.90;;;;;;5061002;28;20666;-52
2022/08/27 09:46:26;;;;;;;5.03;4.83;;;22.60;99.90;;;;;;5050922;28;20218;-52
2022/08/27 09:48:54;;;;;;;4.60;4.40;;;22.80;99.90;;;;;;5058036;28;20625;-53
2022/08/27 09:51:24;;;;;;;4.50;4.30;;;22.90;99.90;;;;;;5060422;28;20201;-52
2022/08/27 09:53:55;;;;;;;4.87;4.57;;;23.00;99.90;;;;;;5050506;28;20236;-52
2022/08/27 09:56:29;;;;;;;4.53;4.13;;;23.10;99.90;;;;;;5057772;28;20308;-52
2022/08/27 09:59:02;;;;;;;4.67;4.47;;;23.10;99.90;;;;;;5057316;28;20209;-53
2022/08/27 10:01:31;;;;;;;4.87;4.57;;;23.10;99.90;;;;;;5057224;28;20205;-52
2022/08/27 10:04:09;;;;;;;4.93;4.57;;;23.20;99.90;;;;;;5050547;28;20220;-52
2022/08/27 10:06:36;;;;;;;4.23;4.13;;;23.50;99.90;;;;;;5064582;28;20221;-52
2022/08/27 10:09:10;;;;;;;4.90;4.70;;;23.60;99.90;;;;;;5054382;28;20209;-52
2022/08/27 10:11:43;;;;;;;4.43;4.23;;;23.40;99.90;;;;;;5054211;28;20251;-52
2022/08/27 10:14:16;;;;;;;4.83;4.63;;;23.20;99.90;;;;;;5058475;28;20251;-52
2022/08/27 10:16:58;;;;;;;5.40;4.80;;;23.30;99.90;;;;;;5068437;28;20673;-52
2022/08/27 10:19:46;;;;;;;3.97;3.87;;;23.30;99.90;;;;;;5069451;28;20221;-52
2022/08/27 10:22:30;;;;;;;4.83;4.63;;;23.30;99.90;;;;;;5056428;28;20193;-52
2022/08/27 10:25:08;;;;;;;4.53;4.33;;;23.40;99.90;;;;;;5052505;28;20208;-52
2022/08/27 10:27:44;;;;;;;4.77;4.47;;;23.30;99.90;;;;;;5058496;28;20319;-53
2022/08/27 10:30:14;;;;;;;4.07;3.77;;;23.40;99.90;;;;;;5058821;28;20228;-52
2022/08/27 10:33:00;;;;;;;4.87;4.53;;;23.30;99.90;;;;;;5069293;28;20188;-52
2022/08/27 10:35:34;;;;;;;4.35;4.13;;;23.40;99.90;;;;;;5049333;28;20460;-52
2022/08/27 10:38:13;;;;;;;4.23;4.03;;;23.40;99.90;;;;;;5059107;28;20197;-52
2022/08/27 10:40:48;;;;;;;5.13;4.73;;;23.50;99.90;;;;;;5050397;28;20194;-52
2022/08/27 10:43:33;;;;;;;4.27;4.07;;;23.40;99.90;;;;;;5050292;28;20682;-52
2022/08/27 10:46:18;;;;;;;4.27;4.03;;;23.20;99.90;;;;;;5066937;28;20225;-52
2022/08/27 10:48:52;;;;;;;4.93;4.50;;;23.10;99.90;;;;;;5057576;28;20262;-52
2022/08/27 10:51:26;;;;;;;3.60;3.47;;;23.10;99.90;;;;;;5050948;28;20198;-52
2022/08/27 10:54:00;;;;;;;4.20;4.10;;;23.20;99.90;;;;;;5050024;28;20218;-52
2022/08/27 10:56:33;;;;;;;5.07;4.60;;;23.30;99.90;;;;;;5064144;28;20613;-52
2022/08/27 10:59:10;;;;;;;5.07;4.63;;;23.30;99.90;;;;;;5068189;28;20247;-52
2022/08/27 11:01:48;;;;;;;3.70;3.60;;;23.30;99.90;;;;;;5070857;28;20563;-52
2022/08/27 11:04:20;;;;;;;4.40;4.10;;;23.20;99.90;;;;;;5069476;28;20215;-52
2022/08/27 11:06:52;;;;;;;3.80;3.63;;;23.30;99.90;;;;;;5070893;28;20770;-53
2022/08/27 11:09:26;;;;;;;4.63;4.33;;;23.40;99.90;;;;;;5070021;28;20251;-52
2022/08/27 11:11:58;;;;;;;3.63;3.53;;;23.50;99.90;;;;;;5069784;28;20205;-53
2022/08/27 11:14:38;;;;;;;4.67;4.37;;;23.60;99.90;;;;;;5070629;28;20201;-53
2022/08/27 11:17:11;;;;;;;4.10;3.80;;;23.60;99.90;;;;;;5071134;28;20228;-52
2022/08/27 11:19:48;;;;;;;4.23;4.03;;;23.60;99.90;;;;;;5069453;28;20197;-52
2022/08/27 11:22:19;;;;;;;3.87;3.67;;;23.80;99.90;;;;;;5070627;28;20244;-52
2022/08/27 11:24:51;;;;;;;4.23;3.93;;;23.80;99.90;;;;;;5070430;28;20208;-52
2022/08/27 11:27:24;;;;;;;3.53;3.40;;;23.90;99.90;;;;;;5065955;28;20225;-53
2022/08/27 11:29:59;;;;;;;3.37;3.27;;;24.00;99.90;;;;;;5062670;28;20224;-52
2022/08/27 11:32:36;;;;;;;4.47;4.17;;;24.00;99.90;;;;;;5054024;28;20193;-52
2022/08/27 11:35:09;;;;;;;3.77;3.63;;;24.10;99.90;;;;;;5070850;28;20733;-52
2022/08/27 11:37:55;;;;;;;3.90;3.70;;;24.00;99.90;;;;;;5072114;28;20659;-52
2022/08/27 11:40:42;;;;;;;4.60;4.30;;;23.70;99.90;;;;;;5054491;28;20583;-52
2022/08/27 11:43:16;;;;;;;3.80;3.60;;;23.60;99.90;;;;;;5060517;28;20212;-52
2022/08/27 11:45:55;;;;;;;4.60;4.37;;;23.50;99.90;;;;;;5071662;28;20271;-52
2022/08/27 11:48:26;;;;;;;3.87;3.77;;;23.50;99.90;;;;;;5068931;28;20632;-52
2022/08/27 11:51:00;;;;;;;3.53;3.33;;;23.50;99.90;;;;;;5066383;28;20193;-52
2022/08/27 11:53:30;;;;;;;4.87;4.23;;;23.50;99.90;;;;;;5052853;28;20778;-52
2022/08/27 11:55:57;;;;;;;4.50;4.30;;;23.60;99.90;;;;;;5059368;28;20217;-52
2022/08/27 11:58:29;;;;;;;4.77;4.47;;;23.50;99.90;;;;;;5071714;28;20205;-52
2022/08/27 12:00:57;;;;;;;4.23;3.87;;;23.50;99.90;;;;;;5072411;28;20247;-53
2022/08/27 12:03:29;;;;;;;3.87;3.77;;;23.50;99.90;;;;;;5064214;28;20232;-52
2022/08/27 12:06:19;;;;;;;3.27;3.17;;;23.70;99.90;;;;;;5057581;28;20218;-53
2022/08/27 12:08:46;;;;;;;3.73;3.53;;;23.90;99.90;;;;;;5057055;28;20202;-53
2022/08/27 12:11:35;;;;;;;4.60;4.30;;;24.00;99.90;;;;;;5052742;28;20240;-53
2022/08/27 12:14:14;;;;;;;4.07;3.87;;;24.10;99.90;;;;;;5063665;28;20560;-53
2022/08/27 12:16:47;;;;;;;4.00;3.80;;;24.30;99.90;;;;;;5052662;28;20699;-52
2022/08/27 12:19:31;;;;;;;3.27;3.17;;;24.40;99.90;;;;;;5052980;28;20194;-52
2022/08/27 12:22:09;;;;;;;3.33;3.23;;;24.40;99.90;;;;;;5053075;28;20347;-53
2022/08/27 12:24:50;;;;;;;3.17;2.97;;;24.70;99.90;;;;;;5054747;28;20595;-53
2022/08/27 12:27:34;;;;;;;3.40;3.30;;;24.80;99.90;;;;;;5056586;28;20622;-52
2022/08/27 12:30:07;;;;;;;4.50;3.17;;;24.90;99.90;;;;;;5059557;28;20232;-52
2022/08/27 12:32:38;;;;;;;3.70;3.40;;;25.10;99.90;;;;;;5071357;28;20201;-52
2022/08/27 12:35:11;;;;;;;3.20;3.10;;;25.30;99.90;;;;;;5070752;28;20201;-52
2022/08/27 12:37:42;;;;;;;4.17;4.00;;;25.30;99.90;;;;;;5068977;28;20202;-52
2022/08/27 12:40:19;;;;;;;3.80;3.60;;;25.10;99.90;;;;;;5058235;28;20565;-52
2022/08/27 12:42:46;;;;;;;3.90;3.70;;;25.10;99.90;;;;;;5072803;28;20571;-52
2022/08/27 12:45:25;;;;;;;3.40;3.20;;;25.00;99.90;;;;;;5069070;28;20197;-53
2022/08/27 12:47:54;;;;;;;3.87;3.60;;;24.90;99.90;;;;;;5071275;28;20221;-52
2022/08/27 12:50:25;;;;;;;3.33;3.23;;;24.80;99.90;;;;;;5071860;28;20197;-52
2022/08/27 12:53:19;;;;;;;3.33;3.13;;;24.70;99.90;;;;;;5071305;28;20220;-53
2022/08/27 12:56:00;;;;;;;4.53;4.23;;;24.80;99.90;;;;;;5067363;28;20221;-52
2022/08/27 12:58:39;;;;;;;4.80;4.40;;;24.70;99.90;;;;;;5070791;28;20236;-52
2022/08/27 13:01:35;;;;;;;5.83;4.07;;;24.70;99.90;;;;;;5064520;28;20612;-52
2022/08/27 13:04:04;;;;;;;4.33;4.13;;;24.60;99.90;;;;;;5063392;28;20207;-53
2022/08/27 13:06:33;;;;;;;3.30;3.20;;;24.60;99.90;;;;;;5069289;28;20225;-53